Terminal Aerodrome Forecast
Issued by NWS

Home | Current Version | Previous Version | Text Only | Print | Product List | Glossary On
Versions: 1 2 3 4 5 6 7 8 9 10 11 12 13 14 15
000
FTAK31 PAJN 032335
TAFAJN
TAF
PAJN 032335Z 0400/0424 24010KT P6SM FEW040 SCT200
     FM040300 VRB03KT P6SM BKN220
     FM041100 09006KT P6SM OVC090
     FM042000 10011KT P6SM VCSH SCT050 OVC080
     FM042300 10014KT P6SM -RA SCT040 OVC060=

USA.gov is the U.S. government's official web portal to all federal, state and local government web resources and services.